createdAt,value
2023-03-22T00:02:01.022Z,3.03
2023-03-22T00:07:41.472Z,3.25
2023-03-22T00:10:18.108Z,2.70
2023-03-22T00:15:36.952Z,3.07
2023-03-22T00:18:19.253Z,3.53
2023-03-22T00:24:15.094Z,3.70
2023-03-22T00:26:49.419Z,3.20
2023-03-22T00:29:19.324Z,2.73
2023-03-22T00:31:48.182Z,3.25
2023-03-22T00:34:36.768Z,3.25
2023-03-22T00:37:26.889Z,3.55
2023-03-22T00:40:18.270Z,3.22
2023-03-22T00:42:50.930Z,3.57
2023-03-22T00:45:38.403Z,3.10
2023-03-22T00:48:25.928Z,3.72
2023-03-22T00:50:58.925Z,3.42
2023-03-22T00:53:26.258Z,3.97
2023-03-22T00:55:54.192Z,3.60
2023-03-22T00:58:21.362Z,3.95
2023-03-22T01:00:48.258Z,3.90
2023-03-22T01:03:14.984Z,3.95
2023-03-22T01:05:42.109Z,3.63
2023-03-22T01:08:10.257Z,3.90
2023-03-22T01:10:38.592Z,3.58
2023-03-22T01:13:06.256Z,3.90
2023-03-22T01:15:32.942Z,4.38
2023-03-22T01:17:59.596Z,4.00
2023-03-22T01:20:27.041Z,4.00
2023-03-22T01:22:53.722Z,4.05
2023-03-22T01:25:21.798Z,4.22
2023-03-22T01:27:48.417Z,3.90
2023-03-22T01:30:14.960Z,3.97
2023-03-22T01:32:41.748Z,4.40
2023-03-22T01:35:09.241Z,4.10
2023-03-22T01:37:36.158Z,4.40
2023-03-22T01:40:02.838Z,4.25
2023-03-22T01:42:30.954Z,4.32
2023-03-22T01:45:37.541Z,4.40
2023-03-22T01:48:13.323Z,4.43
2023-03-22T01:50:42.493Z,3.97
2023-03-22T01:53:12.620Z,4.15
2023-03-22T01:55:39.815Z,4.10
2023-03-22T01:58:08.060Z,4.13
2023-03-22T02:00:34.605Z,4.45
2023-03-22T02:03:01.445Z,4.32
2023-03-22T02:05:31.028Z,4.30
2023-03-22T02:07:57.666Z,4.97
2023-03-22T02:10:27.288Z,4.80
2023-03-22T02:13:12.861Z,4.60
2023-03-22T02:15:43.586Z,4.80
2023-03-22T02:18:26.214Z,4.72
2023-03-22T02:21:28.139Z,4.60
2023-03-22T02:24:34.063Z,5.03
2023-03-22T02:27:22.624Z,5.30
2023-03-22T02:30:00.816Z,4.78
2023-03-22T02:33:00.129Z,4.70
2023-03-22T02:36:00.096Z,4.88
2023-03-22T02:39:05.174Z,4.97
2023-03-22T02:41:44.041Z,5.10
2023-03-22T02:44:22.489Z,4.75
2023-03-22T02:46:56.533Z,5.20
2023-03-22T02:49:33.056Z,5.22
2023-03-22T02:52:07.051Z,5.23
2023-03-22T02:54:43.330Z,5.15
2023-03-22T02:57:16.873Z,5.03
2023-03-22T02:59:44.945Z,5.30
2023-03-22T03:02:15.191Z,5.50
2023-03-22T03:04:46.288Z,5.30
2023-03-22T03:07:17.097Z,5.90
2023-03-22T03:09:45.549Z,4.93
2023-03-22T03:12:18.310Z,5.30
2023-03-22T03:14:45.042Z,5.13
2023-03-22T03:17:22.779Z,5.17
2023-03-22T03:20:00.306Z,4.72
2023-03-22T03:22:40.448Z,5.40
2023-03-22T03:25:15.599Z,5.35
2023-03-22T03:27:48.870Z,4.80
2023-03-22T03:30:19.701Z,5.67
2023-03-22T03:32:50.280Z,5.13
2023-03-22T03:35:21.875Z,4.80
2023-03-22T03:37:51.256Z,5.05
2023-03-22T03:40:23.461Z,5.13
2023-03-22T03:42:53.525Z,4.90
2023-03-22T03:45:20.587Z,5.30
2023-03-22T03:47:49.143Z,5.10
2023-03-22T03:50:16.505Z,5.05
2023-03-22T03:52:43.363Z,5.07
2023-03-22T03:55:10.347Z,5.13
2023-03-22T03:57:38.269Z,4.78
2023-03-22T04:00:06.302Z,4.65
2023-03-22T04:02:32.898Z,5.15
2023-03-22T04:04:59.595Z,5.03
2023-03-22T04:07:26.256Z,5.53
2023-03-22T04:09:52.793Z,5.30
2023-03-22T04:12:19.505Z,5.75
2023-03-22T04:14:47.398Z,4.75
2023-03-22T04:17:14.015Z,5.05
2023-03-22T04:19:40.878Z,4.90
2023-03-22T04:22:07.689Z,4.50
2023-03-22T04:24:34.283Z,5.20
2023-03-22T04:27:00.842Z,5.43
2023-03-22T04:29:27.822Z,5.57
2023-03-22T04:31:55.699Z,5.37
2023-03-22T04:34:22.312Z,4.95
2023-03-22T04:36:48.874Z,4.93
2023-03-22T04:39:15.471Z,5.30
2023-03-22T04:41:42.105Z,4.82
2023-03-22T04:44:08.887Z,5.07
2023-03-22T04:46:36.690Z,5.07
2023-03-22T04:49:05.368Z,5.13
2023-03-22T04:51:32.208Z,4.85
2023-03-22T04:53:59.180Z,5.10
2023-03-22T04:56:25.855Z,4.70
2023-03-22T04:58:52.414Z,5.40
2023-03-22T05:01:18.960Z,4.80
2023-03-22T05:03:45.709Z,5.50
2023-03-22T05:06:14.338Z,4.72
2023-03-22T05:08:41.438Z,5.30
2023-03-22T05:11:10.379Z,4.82
2023-03-22T05:13:37.243Z,5.18
2023-03-22T05:16:04.674Z,4.88
2023-03-22T05:18:31.757Z,4.68
2023-03-22T05:20:59.808Z,4.20
2023-03-22T05:23:27.894Z,5.05
2023-03-22T05:25:54.500Z,4.88
2023-03-22T05:28:21.524Z,4.32
2023-03-22T05:30:49.533Z,4.60
2023-03-22T05:33:16.226Z,4.57
2023-03-22T05:35:43.174Z,4.45
2023-03-22T05:38:11.843Z,4.55
2023-03-22T05:40:40.162Z,4.57
2023-03-22T05:43:06.930Z,4.50
2023-03-22T05:45:36.430Z,4.60
2023-03-22T05:48:03.166Z,4.43
2023-03-22T05:50:29.767Z,4.15
2023-03-22T05:52:56.343Z,4.28
2023-03-22T05:55:23.126Z,4.68
2023-03-22T05:57:51.144Z,4.30
2023-03-22T06:00:19.221Z,4.47
2023-03-22T06:02:48.187Z,4.40
2023-03-22T06:05:16.509Z,4.47
2023-03-22T06:07:43.564Z,3.88
2023-03-22T06:10:12.908Z,4.20
2023-03-22T06:12:40.296Z,3.70
2023-03-22T06:15:19.438Z,4.15
2023-03-22T06:17:46.112Z,4.45
2023-03-22T06:20:15.730Z,4.32
2023-03-22T06:22:46.164Z,4.07
2023-03-22T06:25:13.924Z,4.40
2023-03-22T06:27:40.478Z,4.93
2023-03-22T06:30:21.530Z,5.30
2023-03-22T06:32:48.039Z,4.93
2023-03-22T06:35:25.041Z,4.80
2023-03-22T06:38:03.807Z,4.85
2023-03-22T06:40:36.433Z,5.38
2023-03-22T06:43:06.381Z,5.07
2023-03-22T06:46:08.538Z,4.85
2023-03-22T06:49:11.155Z,4.60
2023-03-22T06:51:48.972Z,4.47
2023-03-22T06:54:35.694Z,4.15
2023-03-22T06:57:05.873Z,4.50
2023-03-22T06:59:43.108Z,4.00
2023-03-22T07:02:53.246Z,3.83
2023-03-22T07:05:35.905Z,4.00
2023-03-22T07:08:50.809Z,3.25
2023-03-22T07:15:08.735Z,3.33
2023-03-22T07:53:54.649Z,2.20
2023-03-22T07:56:21.282Z,2.88
2023-03-22T08:00:02.321Z,3.05
2023-03-22T08:02:42.384Z,2.45
2023-03-22T08:05:18.545Z,2.73
2023-03-22T08:07:45.168Z,2.30
2023-03-22T08:10:13.229Z,2.42
2023-03-22T08:12:39.861Z,2.33
2023-03-22T08:15:07.999Z,2.00
2023-03-22T08:17:34.757Z,1.97
2023-03-22T08:20:01.741Z,1.80
2023-03-22T08:22:28.425Z,1.60
2023-03-22T08:24:55.459Z,1.85
2023-03-22T08:27:23.551Z,1.95
2023-03-22T08:29:50.124Z,1.70
2023-03-22T08:32:17.855Z,1.30
2023-03-22T08:34:44.856Z,1.40
2023-03-22T08:37:12.524Z,1.08
2023-03-22T08:39:39.203Z,1.10
2023-03-22T08:42:06.044Z,1.20
2023-03-22T08:44:34.013Z,1.40
2023-03-22T08:47:02.179Z,1.30
2023-03-22T08:49:29.528Z,1.40
2023-03-22T08:51:56.283Z,1.10
2023-03-22T08:54:22.876Z,1.00
2023-03-22T08:56:49.604Z,1.60
2023-03-22T09:06:38.568Z,1.33
2023-03-22T09:09:06.653Z,0.87
2023-03-22T09:11:33.213Z,0.93
2023-03-22T09:15:23.805Z,0.98
2023-03-22T09:17:50.609Z,1.10
2023-03-22T09:20:17.244Z,1.10
2023-03-22T09:22:43.959Z,0.90
2023-03-22T09:25:12.957Z,1.05
2023-03-22T09:27:39.941Z,1.05
2023-03-22T09:30:07.701Z,0.93
2023-03-22T09:32:34.621Z,0.80
2023-03-22T09:35:01.517Z,1.10
2023-03-22T09:37:28.064Z,0.75
2023-03-22T09:39:54.651Z,1.67
2023-03-22T09:42:31.262Z,1.30
2023-03-22T09:45:00.571Z,1.20
2023-03-22T09:47:44.208Z,1.00
2023-03-22T09:50:13.813Z,1.35
2023-03-22T09:52:40.761Z,1.08
2023-03-22T09:55:22.690Z,1.00
2023-03-22T09:57:58.680Z,1.10
2023-03-22T10:00:33.512Z,1.10
2023-03-22T10:03:12.294Z,1.00
2023-03-22T10:05:43.535Z,0.80
2023-03-22T10:17:00.509Z,1.30
2023-03-22T10:50:30.052Z,0.93
2023-03-22T10:53:03.053Z,1.27
2023-03-22T10:55:30.358Z,1.20
2023-03-22T10:58:10.704Z,0.90
2023-03-22T11:00:41.220Z,1.10
2023-03-22T11:03:08.943Z,1.08
2023-03-22T11:05:37.118Z,1.27
2023-03-22T11:08:04.188Z,1.00
2023-03-22T11:10:32.160Z,1.00
2023-03-22T11:13:16.752Z,0.93
2023-03-22T11:15:51.596Z,1.20
2023-03-22T11:18:19.413Z,1.13
2023-03-22T11:20:59.162Z,0.90
2023-03-22T11:23:26.559Z,0.90
2023-03-22T11:25:56.928Z,1.10
2023-03-22T11:28:28.076Z,0.93
2023-03-22T11:31:00.889Z,1.00
2023-03-22T11:33:28.073Z,0.88
2023-03-22T11:35:57.634Z,0.83
2023-03-22T11:38:29.171Z,1.10
2023-03-22T11:40:59.026Z,0.73
2023-03-22T11:43:27.939Z,1.02
2023-03-22T11:45:57.868Z,0.70
2023-03-22T11:48:29.985Z,0.70
2023-03-22T11:51:03.964Z,1.05
2023-03-22T11:53:33.870Z,0.90
2023-03-22T11:56:03.013Z,0.80
2023-03-22T11:58:44.700Z,0.90
2023-03-22T12:01:16.703Z,0.70
2023-03-22T12:03:49.054Z,0.80
2023-03-22T12:09:07.709Z,1.10
2023-03-22T12:11:39.233Z,1.00
2023-03-22T12:14:12.282Z,0.80
2023-03-22T12:16:46.529Z,0.90
2023-03-22T12:19:22.590Z,0.98
2023-03-22T12:21:52.011Z,0.75
2023-03-22T12:24:32.080Z,1.02
2023-03-22T12:27:15.205Z,0.97
2023-03-22T12:30:02.401Z,0.80
2023-03-22T12:33:02.577Z,1.00
2023-03-22T12:35:35.806Z,0.90
2023-03-22T12:38:42.195Z,0.90
2023-03-22T12:41:32.980Z,1.27
2023-03-22T12:44:06.648Z,0.90
2023-03-22T12:46:40.021Z,1.70
2023-03-22T12:49:18.085Z,1.30
2023-03-22T12:51:46.763Z,1.10
2023-03-22T12:54:16.923Z,1.13
2023-03-22T12:56:48.070Z,1.00
2023-03-22T12:59:18.454Z,1.00
2023-03-22T13:01:47.526Z,1.00
2023-03-22T13:04:31.970Z,1.10
2023-03-22T13:07:10.351Z,0.80
2023-03-22T13:09:41.335Z,1.20
2023-03-22T13:12:30.000Z,1.10
2023-03-22T13:15:04.201Z,1.10
2023-03-22T13:17:45.297Z,0.82
2023-03-22T13:20:26.445Z,1.20
2023-03-22T13:23:22.165Z,1.02
2023-03-22T13:26:01.757Z,1.20
2023-03-22T13:28:29.984Z,0.90
2023-03-22T13:30:58.955Z,0.80
2023-03-22T13:33:28.545Z,0.90
2023-03-22T13:35:57.671Z,1.48
2023-03-22T13:38:28.954Z,0.93
2023-03-22T13:41:09.033Z,1.10
2023-03-22T13:43:43.978Z,0.73
2023-03-22T13:46:32.555Z,1.03
2023-03-22T13:49:32.857Z,0.95
2023-03-22T13:52:02.100Z,0.80
2023-03-22T13:54:36.221Z,0.77
2023-03-22T13:57:04.366Z,1.02
2023-03-22T13:59:56.997Z,1.23
2023-03-22T14:02:34.431Z,1.15
2023-03-22T14:05:07.324Z,1.42
2023-03-22T14:07:41.805Z,1.35
2023-03-22T14:10:14.455Z,1.30
2023-03-22T14:12:51.418Z,0.80
2023-03-22T14:15:21.515Z,0.90
2023-03-22T14:17:52.486Z,1.13
2023-03-22T14:20:22.697Z,0.93
